createdAt,value
2018-09-24T00:00:08.538Z,11.70
2018-09-24T00:02:36.924Z,11.60
2018-09-24T00:05:05.351Z,11.50
2018-09-24T00:07:33.786Z,11.40
2018-09-24T00:10:02.208Z,11.30
2018-09-24T00:12:30.609Z,11.00
2018-09-24T00:14:59.141Z,11.00
2018-09-24T00:17:27.876Z,10.90
2018-09-24T00:19:56.340Z,11.00
2018-09-24T00:22:24.785Z,11.00
2018-09-24T00:24:53.239Z,11.10
2018-09-24T00:27:21.626Z,11.00
2018-09-24T00:29:50.178Z,11.00
2018-09-24T00:32:18.624Z,10.90
2018-09-24T00:34:47.281Z,11.00
2018-09-24T00:37:15.958Z,10.90
2018-09-24T00:39:44.582Z,10.70
2018-09-24T00:42:13.017Z,10.80
2018-09-24T00:44:41.512Z,10.90
2018-09-24T00:47:10.091Z,10.60
2018-09-24T00:49:38.599Z,10.50
2018-09-24T00:52:07.031Z,10.70
2018-09-24T00:54:35.409Z,10.80
2018-09-24T00:57:03.855Z,10.80
2018-09-24T00:59:32.152Z,10.70
2018-09-24T01:02:00.564Z,10.70
2018-09-24T01:04:28.903Z,10.70
2018-09-24T01:06:57.322Z,10.70
2018-09-24T01:09:25.681Z,10.80
2018-09-24T01:11:54.056Z,10.80
2018-09-24T01:14:22.462Z,10.90
2018-09-24T01:16:50.895Z,11.00
2018-09-24T01:19:19.235Z,10.80
2018-09-24T01:21:47.621Z,10.90
2018-09-24T01:24:16.051Z,10.80
2018-09-24T01:26:44.538Z,10.50
2018-09-24T01:29:12.897Z,10.60
2018-09-24T01:31:41.303Z,10.60
2018-09-24T01:34:09.709Z,10.60
2018-09-24T01:36:38.106Z,10.70
2018-09-24T01:39:07.456Z,10.70
2018-09-24T01:41:35.902Z,10.50
2018-09-24T01:44:04.347Z,10.50
2018-09-24T01:46:32.739Z,10.40
2018-09-24T01:49:01.146Z,10.50
2018-09-24T01:51:37.844Z,10.40
2018-09-24T01:54:07.369Z,10.40
2018-09-24T01:56:36.054Z,10.40
2018-09-24T01:59:04.462Z,10.50
2018-09-24T02:01:33.105Z,10.40
2018-09-24T02:04:01.530Z,10.50
2018-09-24T02:06:30.008Z,10.40
2018-09-24T02:08:58.399Z,10.30
2018-09-24T02:11:26.824Z,10.20
2018-09-24T02:13:55.126Z,10.10
2018-09-24T02:16:23.561Z,10.10
2018-09-24T02:18:56.424Z,9.90
2018-09-24T02:21:24.873Z,10.00
2018-09-24T02:23:54.128Z,9.90
2018-09-24T02:26:22.595Z,9.70
2018-09-24T02:28:51.072Z,9.70
2018-09-24T02:31:20.448Z,9.70
2018-09-24T02:33:48.772Z,9.70
2018-09-24T02:36:17.121Z,9.80
2018-09-24T02:38:45.412Z,9.90
2018-09-24T02:41:13.686Z,9.90
2018-09-24T02:43:42.086Z,9.80
2018-09-24T02:46:10.409Z,9.90
2018-09-24T02:48:38.827Z,9.90
2018-09-24T02:51:07.262Z,9.90
2018-09-24T02:53:38.965Z,9.80
2018-09-24T02:56:07.839Z,9.80
2018-09-24T02:58:36.161Z,9.70
2018-09-24T03:01:04.608Z,9.70
2018-09-24T03:03:33.019Z,9.60
2018-09-24T03:06:01.409Z,9.60
2018-09-24T03:08:29.791Z,9.60
2018-09-24T03:11:03.598Z,9.80
2018-09-24T03:13:31.980Z,9.60
2018-09-24T03:16:00.335Z,9.40
2018-09-24T03:18:28.740Z,9.40
2018-09-24T03:20:57.270Z,9.50
2018-09-24T03:23:25.670Z,9.50
2018-09-24T03:25:54.106Z,9.60
2018-09-24T03:28:22.507Z,9.60
2018-09-24T03:30:50.946Z,9.50
2018-09-24T03:33:19.340Z,9.60
2018-09-24T03:35:47.743Z,9.50
2018-09-24T03:38:16.106Z,9.30
2018-09-24T03:40:44.519Z,9.20
2018-09-24T03:43:12.896Z,9.30
2018-09-24T03:45:41.279Z,9.30
2018-09-24T03:48:09.803Z,9.30
2018-09-24T03:50:38.267Z,9.40
2018-09-24T03:53:06.644Z,9.50
2018-09-24T03:55:35.033Z,9.60
2018-09-24T03:58:03.405Z,9.40
2018-09-24T04:00:31.760Z,9.30
2018-09-24T04:03:00.145Z,9.40
2018-09-24T04:05:33.719Z,9.50
2018-09-24T04:08:07.440Z,9.50
2018-09-24T04:10:41.104Z,9.50
2018-09-24T04:13:14.884Z,9.50
2018-09-24T04:15:48.585Z,9.50
2018-09-24T04:18:22.210Z,9.50
2018-09-24T04:20:55.817Z,9.50
2018-09-24T04:23:29.570Z,9.40
2018-09-24T04:26:03.331Z,9.40
2018-09-24T04:28:37.116Z,9.40
2018-09-24T04:31:11.136Z,9.40
2018-09-24T04:33:44.949Z,9.50
2018-09-24T04:36:18.607Z,9.50
2018-09-24T04:38:53.023Z,9.60
2018-09-24T04:41:26.713Z,9.60
2018-09-24T04:44:00.391Z,9.50
2018-09-24T04:46:34.233Z,9.70
2018-09-24T04:49:08.015Z,9.80
2018-09-24T04:51:41.809Z,9.80
2018-09-24T04:54:15.605Z,9.80
2018-09-24T04:56:49.435Z,9.80
2018-09-24T04:59:23.317Z,10.00
2018-09-24T05:01:57.112Z,10.10
2018-09-24T05:04:30.763Z,10.10
2018-09-24T05:07:04.376Z,9.70
2018-09-24T05:09:37.977Z,9.70
2018-09-24T05:12:11.693Z,9.70
2018-09-24T05:14:45.537Z,9.80
2018-09-24T05:17:19.356Z,9.80
2018-09-24T05:19:53.213Z,9.60
2018-09-24T05:22:27.019Z,9.50
2018-09-24T05:25:00.710Z,9.50
2018-09-24T05:27:34.449Z,9.50
2018-09-24T05:30:08.157Z,9.60
2018-09-24T05:32:41.813Z,9.60
2018-09-24T05:35:15.539Z,9.70
2018-09-24T05:37:49.334Z,9.80
2018-09-24T05:40:23.134Z,9.80
2018-09-24T05:42:56.795Z,9.80
2018-09-24T05:45:30.608Z,9.80
2018-09-24T05:48:04.446Z,9.70
2018-09-24T05:50:38.233Z,9.70
2018-09-24T05:53:11.997Z,9.70
2018-09-24T05:55:45.724Z,9.80
2018-09-24T05:58:19.536Z,9.90
2018-09-24T06:00:53.310Z,10.00
2018-09-24T06:03:26.862Z,9.90
2018-09-24T06:06:00.587Z,9.80
2018-09-24T06:08:34.835Z,10.00
2018-09-24T06:11:08.773Z,9.90
2018-09-24T06:13:42.528Z,9.90
2018-09-24T06:16:16.353Z,9.80
2018-09-24T06:18:50.172Z,9.80
2018-09-24T06:21:23.822Z,9.70
2018-09-24T06:23:57.477Z,9.60
2018-09-24T06:26:31.203Z,9.80
2018-09-24T06:29:04.992Z,9.90
2018-09-24T06:31:38.820Z,9.90
2018-09-24T06:34:12.564Z,10.00
2018-09-24T06:36:46.294Z,10.20
2018-09-24T06:39:19.992Z,10.30
2018-09-24T06:41:53.727Z,10.40
2018-09-24T06:44:27.386Z,10.50
2018-09-24T06:47:01.116Z,10.40
2018-09-24T06:49:34.920Z,10.70
2018-09-24T06:52:16.551Z,10.60
2018-09-24T06:54:50.227Z,10.60
2018-09-24T06:57:23.951Z,10.50
2018-09-24T06:59:57.811Z,10.70
2018-09-24T07:02:31.754Z,10.60
2018-09-24T07:05:05.634Z,10.50
2018-09-24T07:07:39.433Z,10.10
2018-09-24T07:10:13.143Z,9.80
2018-09-24T07:12:46.965Z,9.70
2018-09-24T07:15:20.730Z,10.00
2018-09-24T07:17:54.529Z,10.30
2018-09-24T07:20:28.875Z,10.30
2018-09-24T07:23:02.533Z,10.30
2018-09-24T07:25:36.279Z,10.50
2018-09-24T07:28:10.205Z,10.70
2018-09-24T07:30:43.955Z,11.10
2018-09-24T07:33:17.878Z,11.30
2018-09-24T07:35:51.485Z,11.50
2018-09-24T07:38:25.010Z,11.70
2018-09-24T07:40:58.745Z,11.60
2018-09-24T07:43:32.557Z,11.50
2018-09-24T07:46:06.295Z,11.80
2018-09-24T07:48:39.986Z,13.10
2018-09-24T07:51:13.802Z,13.80
2018-09-24T07:53:47.463Z,13.90
2018-09-24T07:56:21.158Z,13.20
2018-09-24T07:58:54.881Z,12.60
2018-09-24T08:01:28.713Z,12.00
2018-09-24T08:04:02.390Z,11.70
2018-09-24T08:06:36.245Z,12.80
2018-09-24T08:09:11.296Z,14.20
2018-09-24T08:11:45.075Z,15.00
2018-09-24T08:14:18.730Z,15.20
2018-09-24T08:16:52.689Z,14.30
2018-09-24T08:19:26.241Z,13.30
2018-09-24T08:22:00.043Z,13.40
2018-09-24T08:24:33.599Z,13.70
2018-09-24T08:27:07.401Z,14.30
2018-09-24T08:29:41.174Z,14.10
2018-09-24T08:32:14.980Z,14.30
2018-09-24T08:34:48.629Z,14.60
2018-09-24T08:37:23.565Z,13.80
2018-09-24T08:39:57.633Z,13.50
2018-09-24T08:42:31.419Z,13.20
2018-09-24T08:45:05.283Z,13.20
2018-09-24T08:47:39.131Z,13.20
2018-09-24T08:50:12.838Z,12.80
2018-09-24T08:52:46.558Z,12.50
2018-09-24T08:55:20.357Z,13.00
2018-09-24T08:57:54.169Z,13.60
2018-09-24T09:00:27.935Z,14.00
2018-09-24T09:03:01.743Z,14.50
2018-09-24T09:05:35.559Z,14.80
2018-09-24T09:08:09.462Z,14.60
2018-09-24T09:10:43.213Z,13.60
2018-09-24T09:13:16.956Z,13.30
2018-09-24T09:15:50.717Z,13.70
2018-09-24T09:18:24.593Z,14.20
2018-09-24T09:20:58.786Z,14.70
2018-09-24T09:23:32.615Z,14.80
2018-09-24T09:26:06.377Z,14.40
2018-09-24T09:28:40.232Z,13.80
2018-09-24T09:31:14.140Z,13.70
2018-09-24T09:33:47.842Z,13.30
2018-09-24T09:36:21.739Z,13.90
2018-09-24T09:38:55.561Z,14.40
2018-09-24T09:41:29.548Z,15.00
2018-09-24T09:44:03.215Z,15.30
2018-09-24T09:46:36.821Z,14.60
2018-09-24T09:49:10.521Z,13.80
2018-09-24T09:51:44.418Z,13.30
2018-09-24T09:54:18.248Z,13.20
2018-09-24T09:56:52.039Z,13.60
2018-09-24T09:59:25.783Z,13.40
2018-09-24T10:01:59.613Z,13.40
2018-09-24T10:04:33.383Z,13.30
2018-09-24T10:07:07.115Z,13.40
2018-09-24T10:09:40.868Z,14.00
2018-09-24T10:12:14.491Z,14.30
2018-09-24T10:14:48.495Z,14.10
2018-09-24T10:17:22.130Z,14.40
2018-09-24T10:19:56.120Z,14.30
2018-09-24T10:22:29.875Z,14.00
2018-09-24T10:25:04.467Z,13.90
2018-09-24T10:27:38.228Z,14.80
2018-09-24T10:30:11.965Z,15.40
2018-09-24T10:32:45.744Z,15.90
2018-09-24T10:35:19.742Z,16.20
2018-09-24T10:37:53.420Z,16.30
2018-09-24T10:40:27.215Z,16.40
2018-09-24T10:43:00.981Z,16.30
2018-09-24T10:45:34.785Z,15.30
2018-09-24T10:48:08.673Z,14.40
2018-09-24T10:50:42.409Z,14.30
2018-09-24T10:53:16.216Z,14.70
2018-09-24T10:55:49.855Z,15.20
2018-09-24T10:58:23.813Z,15.80
2018-09-24T11:00:57.810Z,15.80
2018-09-24T11:03:31.583Z,15.60
2018-09-24T11:06:05.329Z,16.00
2018-09-24T11:08:39.086Z,16.50
2018-09-24T11:11:12.911Z,16.70
2018-09-24T11:13:46.678Z,16.60
2018-09-24T11:16:20.572Z,16.60
2018-09-24T11:18:54.127Z,16.70
2018-09-24T11:21:27.892Z,16.20
2018-09-24T11:24:01.925Z,16.30
2018-09-24T11:26:35.684Z,15.60
2018-09-24T11:29:09.390Z,15.90
2018-09-24T11:31:43.168Z,16.30
2018-09-24T11:34:16.994Z,16.50
2018-09-24T11:36:50.824Z,16.60
2018-09-24T11:39:24.565Z,16.60
2018-09-24T11:41:58.367Z,16.60
2018-09-24T11:44:32.172Z,16.30
2018-09-24T11:47:06.017Z,16.70
2018-09-24T11:49:39.707Z,17.00
2018-09-24T11:52:13.446Z,17.30
2018-09-24T11:54:47.249Z,17.10
2018-09-24T11:57:21.150Z,16.40
2018-09-24T11:59:54.808Z,16.00
2018-09-24T12:02:28.727Z,16.00
2018-09-24T12:05:02.471Z,16.20
2018-09-24T12:07:36.379Z,16.30
2018-09-24T12:10:10.242Z,16.40
2018-09-24T12:12:44.019Z,16.10
2018-09-24T12:15:17.769Z,15.70
2018-09-24T12:17:51.588Z,15.10
2018-09-24T12:20:25.310Z,14.80
2018-09-24T12:22:59.133Z,14.70
2018-09-24T12:25:32.831Z,14.90
2018-09-24T12:28:06.757Z,15.20
2018-09-24T12:30:40.527Z,15.50
2018-09-24T12:33:14.318Z,15.80
2018-09-24T12:35:48.163Z,16.10
2018-09-24T12:38:23.349Z,15.70
2018-09-24T12:40:56.977Z,15.20
2018-09-24T12:43:30.977Z,15.00
2018-09-24T12:46:04.720Z,15.20
2018-09-24T12:48:38.425Z,15.40
2018-09-24T12:51:12.158Z,15.30
2018-09-24T12:53:45.932Z,14.80
2018-09-24T12:56:19.712Z,14.50
2018-09-24T12:58:53.563Z,14.50
2018-09-24T13:01:27.394Z,14.60
2018-09-24T13:04:01.156Z,14.90
2018-09-24T13:06:34.935Z,15.20
2018-09-24T13:09:09.103Z,15.30
2018-09-24T13:11:43.018Z,15.10
2018-09-24T13:14:16.795Z,15.10
2018-09-24T13:16:50.452Z,14.90
2018-09-24T13:19:24.278Z,14.70
2018-09-24T13:21:57.919Z,14.40
2018-09-24T13:24:31.791Z,14.20
2018-09-24T13:27:05.588Z,14.10
2018-09-24T13:29:39.537Z,14.00
2018-09-24T13:32:13.522Z,13.90
2018-09-24T13:34:47.393Z,13.70
2018-09-24T13:37:21.092Z,14.10
2018-09-24T13:39:54.896Z,14.40
2018-09-24T13:42:28.651Z,14.40
2018-09-24T13:45:02.434Z,14.40
2018-09-24T13:47:36.157Z,14.40
2018-09-24T13:50:09.947Z,14.50
2018-09-24T13:52:43.747Z,14.30
2018-09-24T13:55:17.449Z,14.00
2018-09-24T13:57:51.227Z,14.10
2018-09-24T14:00:25.047Z,14.10
2018-09-24T14:02:58.943Z,14.10
2018-09-24T14:05:32.488Z,13.90
2018-09-24T14:08:06.172Z,13.90
2018-09-24T14:10:39.887Z,14.00
2018-09-24T14:13:13.680Z,14.00
2018-09-24T14:15:47.369Z,13.90
2018-09-24T14:18:21.080Z,13.80
2018-09-24T14:20:54.890Z,13.30
2018-09-24T14:23:28.679Z,13.40
2018-09-24T14:26:02.426Z,13.50
2018-09-24T14:28:36.231Z,13.20
2018-09-24T14:31:09.815Z,13.20
2018-09-24T14:33:44.434Z,13.10
2018-09-24T14:36:18.169Z,13.40
2018-09-24T14:38:51.941Z,13.70
2018-09-24T14:41:25.859Z,13.60
2018-09-24T14:43:59.632Z,13.40
2018-09-24T14:46:33.564Z,13.40
2018-09-24T14:49:07.195Z,13.40
2018-09-24T14:51:40.907Z,13.30
2018-09-24T14:54:14.657Z,13.10
2018-09-24T14:56:48.516Z,13.00
2018-09-24T14:59:22.287Z,13.00
2018-09-24T15:01:56.149Z,13.00
2018-09-24T15:04:30.004Z,13.20
2018-09-24T15:07:03.753Z,13.30
2018-09-24T15:09:37.735Z,13.20
2018-09-24T15:12:11.527Z,13.30
2018-09-24T15:14:45.277Z,13.50
2018-09-24T15:17:18.961Z,13.50
2018-09-24T15:19:52.642Z,13.30
2018-09-24T15:22:26.359Z,13.30
2018-09-24T15:25:00.267Z,13.50
2018-09-24T15:27:34.077Z,13.40
2018-09-24T15:30:07.721Z,13.40
2018-09-24T15:32:41.494Z,13.50
2018-09-24T15:35:15.316Z,13.70
2018-09-24T15:37:49.107Z,13.70
2018-09-24T15:40:42.720Z,14.00
2018-09-24T15:43:18.263Z,14.00
2018-09-24T15:45:51.939Z,14.00
2018-09-24T15:48:25.772Z,13.80
2018-09-24T15:50:59.519Z,13.80
2018-09-24T15:53:33.182Z,13.90
2018-09-24T15:56:07.094Z,14.00
2018-09-24T15:58:40.783Z,13.90
2018-09-24T16:01:14.597Z,13.80
2018-09-24T16:03:48.507Z,13.80
2018-09-24T16:06:22.199Z,13.70
2018-09-24T16:08:55.935Z,13.60
2018-09-24T16:11:29.684Z,13.50
2018-09-24T16:14:03.525Z,13.40
2018-09-24T16:16:37.326Z,13.50
2018-09-24T16:19:11.315Z,13.40
2018-09-24T16:21:44.971Z,13.40
2018-09-24T16:24:18.783Z,13.30
2018-09-24T16:26:52.413Z,13.30
2018-09-24T16:29:26.240Z,13.20
2018-09-24T16:32:00.009Z,13.10
2018-09-24T16:34:33.688Z,12.90
2018-09-24T16:37:07.379Z,12.80
2018-09-24T16:39:41.156Z,12.80
2018-09-24T16:42:14.998Z,12.80
2018-09-24T16:44:48.783Z,12.90
2018-09-24T16:47:22.595Z,12.80
2018-09-24T16:49:56.454Z,12.80
2018-09-24T16:52:30.307Z,12.70
2018-09-24T16:55:04.134Z,12.70
2018-09-24T16:57:37.907Z,12.80
2018-09-24T17:00:11.855Z,12.70
2018-09-24T17:02:45.547Z,12.60
2018-09-24T17:05:19.425Z,12.70
2018-09-24T17:07:54.613Z,12.60
2018-09-24T17:10:28.438Z,12.50
2018-09-24T17:13:02.110Z,12.50
2018-09-24T17:15:35.779Z,12.50
2018-09-24T17:18:09.603Z,12.40
2018-09-24T17:20:43.256Z,12.40
2018-09-24T17:23:17.070Z,12.30
2018-09-24T17:25:50.793Z,12.20
2018-09-24T17:28:24.595Z,12.10
2018-09-24T17:30:58.363Z,12.00
2018-09-24T17:33:32.095Z,12.00
2018-09-24T17:36:05.765Z,11.90
2018-09-24T17:38:39.449Z,11.80
2018-09-24T17:41:13.240Z,11.70
2018-09-24T17:43:47.117Z,11.60
2018-09-24T17:46:20.744Z,11.50
2018-09-24T17:48:54.521Z,11.50
2018-09-24T17:51:28.325Z,11.40
2018-09-24T17:54:02.050Z,11.30
2018-09-24T17:56:35.703Z,11.30
2018-09-24T17:59:09.393Z,11.10
2018-09-24T18:01:43.149Z,11.00
2018-09-24T18:04:16.915Z,10.90
2018-09-24T18:06:50.637Z,10.90
2018-09-24T18:09:24.418Z,10.80
2018-09-24T18:11:58.255Z,10.70
2018-09-24T18:14:32.368Z,10.70
2018-09-24T18:17:06.097Z,10.70
2018-09-24T18:19:40.019Z,10.60
2018-09-24T18:22:13.872Z,10.60
2018-09-24T18:24:47.689Z,10.60
2018-09-24T18:27:21.410Z,10.70
2018-09-24T18:29:55.074Z,10.70
2018-09-24T18:32:28.905Z,10.60
2018-09-24T18:35:02.699Z,10.50
2018-09-24T18:37:36.656Z,10.50
2018-09-24T18:40:10.409Z,10.40
2018-09-24T18:42:44.323Z,10.40
2018-09-24T18:45:18.277Z,10.30
2018-09-24T18:47:52.185Z,10.30
2018-09-24T18:50:25.955Z,10.30
2018-09-24T18:52:59.689Z,10.20
2018-09-24T18:55:33.351Z,10.20
2018-09-24T18:58:07.233Z,10.10
2018-09-24T19:00:41.858Z,10.10
2018-09-24T19:03:15.819Z,10.00
2018-09-24T19:05:49.653Z,10.00
2018-09-24T19:08:23.415Z,10.00
2018-09-24T19:10:57.185Z,9.90
2018-09-24T19:13:30.885Z,9.80
2018-09-24T19:16:04.498Z,9.70
2018-09-24T19:18:39.168Z,9.60
2018-09-24T19:21:12.958Z,9.50
2018-09-24T19:23:46.612Z,9.50
2018-09-24T19:26:20.328Z,9.40
2018-09-24T19:28:54.088Z,9.30
2018-09-24T19:31:27.920Z,9.30
2018-09-24T19:34:01.497Z,9.20
2018-09-24T19:36:35.231Z,9.20
2018-09-24T19:39:13.883Z,9.10
2018-09-24T19:41:47.785Z,9.10
2018-09-24T19:44:21.706Z,9.10
2018-09-24T19:46:55.522Z,9.00
2018-09-24T19:49:29.305Z,8.90
2018-09-24T19:52:03.059Z,8.90
2018-09-24T19:54:36.805Z,9.00
2018-09-24T19:57:10.785Z,8.90
2018-09-24T19:59:44.641Z,8.80
2018-09-24T20:02:18.240Z,8.80
2018-09-24T20:04:51.945Z,8.70
2018-09-24T20:07:25.685Z,8.70
2018-09-24T20:09:59.590Z,8.70
2018-09-24T20:12:33.422Z,8.70
2018-09-24T20:15:07.065Z,8.60
2018-09-24T20:17:40.778Z,8.60
2018-09-24T20:20:14.423Z,8.50
2018-09-24T20:22:48.122Z,8.60
2018-09-24T20:25:21.911Z,8.50
2018-09-24T20:27:55.688Z,8.40
2018-09-24T20:30:29.442Z,8.40
2018-09-24T20:33:03.237Z,8.30
2018-09-24T20:35:36.972Z,8.30
2018-09-24T20:38:10.727Z,8.30
2018-09-24T20:40:44.293Z,8.30
2018-09-24T20:43:17.993Z,8.20
2018-09-24T20:45:51.629Z,8.20
2018-09-24T20:48:25.260Z,8.30
2018-09-24T20:50:59.002Z,8.30
2018-09-24T20:53:32.674Z,8.30
2018-09-24T20:56:06.645Z,8.20
2018-09-24T20:58:40.441Z,8.20
2018-09-24T21:01:14.300Z,8.10
2018-09-24T21:03:48.450Z,8.10
2018-09-24T21:06:23.020Z,8.10
2018-09-24T21:08:57.044Z,8.10
2018-09-24T21:11:30.922Z,8.10
2018-09-24T21:14:04.727Z,8.10
2018-09-24T21:16:38.523Z,8.00
2018-09-24T21:19:12.545Z,8.00
2018-09-24T21:21:46.364Z,8.00
2018-09-24T21:24:20.076Z,8.00
2018-09-24T21:26:54.789Z,8.00
2018-09-24T21:29:28.803Z,7.90
2018-09-24T21:32:02.523Z,7.90
2018-09-24T21:34:36.424Z,7.90
2018-09-24T21:37:10.355Z,7.90
2018-09-24T21:39:44.076Z,7.80
2018-09-24T21:42:17.765Z,7.80
2018-09-24T21:44:51.549Z,7.80
2018-09-24T21:47:25.301Z,7.80
2018-09-24T21:49:59.203Z,7.70
2018-09-24T21:52:33.036Z,7.70
2018-09-24T21:55:06.842Z,7.80
2018-09-24T21:57:40.494Z,7.80
2018-09-24T22:00:14.379Z,7.80
2018-09-24T22:02:48.131Z,7.70
2018-09-24T22:05:21.955Z,7.70
2018-09-24T22:07:55.605Z,7.60
2018-09-24T22:10:29.375Z,7.70
2018-09-24T22:13:03.065Z,7.70
2018-09-24T22:15:36.815Z,7.60
2018-09-24T22:18:10.731Z,7.60
2018-09-24T22:20:44.608Z,7.50
2018-09-24T22:23:18.291Z,7.40
2018-09-24T22:25:52.027Z,7.40
2018-09-24T22:28:25.593Z,7.30
2018-09-24T22:30:59.190Z,7.30
2018-09-24T22:33:33.135Z,7.20
2018-09-24T22:36:06.866Z,7.20
2018-09-24T22:38:40.603Z,7.20
2018-09-24T22:41:14.729Z,7.30
2018-09-24T22:43:48.567Z,7.30
2018-09-24T22:46:22.467Z,7.10
2018-09-24T22:48:56.196Z,7.10
2018-09-24T22:51:32.013Z,7.20
2018-09-24T22:54:05.931Z,7.20
2018-09-24T22:56:39.717Z,7.20
2018-09-24T22:59:13.885Z,7.10
2018-09-24T23:01:47.939Z,7.10
2018-09-24T23:04:21.749Z,7.10
2018-09-24T23:06:55.731Z,7.00
2018-09-24T23:09:29.523Z,7.00
2018-09-24T23:12:03.279Z,7.00
2018-09-24T23:14:36.994Z,7.00
2018-09-24T23:17:10.739Z,7.10
2018-09-24T23:19:44.482Z,7.00
2018-09-24T23:22:18.247Z,7.10
2018-09-24T23:24:51.964Z,7.10
2018-09-24T23:27:25.753Z,7.00
2018-09-24T23:29:59.532Z,7.00
2018-09-24T23:32:33.267Z,7.00
2018-09-24T23:35:07.018Z,6.90
2018-09-24T23:37:40.664Z,6.90
2018-09-24T23:40:14.494Z,6.90
2018-09-24T23:42:48.177Z,6.90
2018-09-24T23:45:22.005Z,6.90
2018-09-24T23:47:55.639Z,6.80
2018-09-24T23:50:29.471Z,6.80
2018-09-24T23:53:03.077Z,6.80
2018-09-24T23:55:36.793Z,6.80
2018-09-24T23:58:10.556Z,6.70
